Time;durP1;ratioP1;P1;durP2;ratioP2;P2;SDS_P1;SDS_P2;PMS_P1;PMS_P2;Temp;Humidity;BMP_temperature;BMP_pressure;BME280_temperature;BME280_humidity;BME280_pressure;Samples;Min_cycle;Max_cycle;Signal;HPM_P1;HPM_P2
2023/01/09 00:02:32;;;;;;;8.17;7.37;;;6.60;99.90;;;;;;6266822;28;20639;-62
2023/01/09 00:05:35;;;;;;;10.63;7.13;;;6.60;99.90;;;;;;6262221;28;20481;-62
2023/01/09 00:08:40;;;;;;;8.93;8.00;;;6.60;99.90;;;;;;6259767;28;20482;-62
2023/01/09 00:11:43;;;;;;;7.00;6.40;;;6.60;99.90;;;;;;6261478;28;20467;-62
2023/01/09 00:14:47;;;;;;;8.33;7.53;;;6.50;99.90;;;;;;6262074;28;21689;-62
2023/01/09 00:17:50;;;;;;;7.50;6.80;;;6.60;99.90;;;;;;6269113;28;20541;-63
2023/01/09 00:20:53;;;;;;;8.70;7.40;;;6.60;99.90;;;;;;6264153;28;20478;-62
2023/01/09 00:23:57;;;;;;;10.97;8.10;;;6.50;99.90;;;;;;6268003;28;20478;-62
2023/01/09 00:27:01;;;;;;;10.90;8.30;;;6.60;99.90;;;;;;6266129;28;20784;-62
2023/01/09 00:30:05;;;;;;;9.13;7.50;;;6.60;99.90;;;;;;6260887;28;20479;-62
2023/01/09 00:33:09;;;;;;;9.80;7.53;;;6.60;99.90;;;;;;6261134;28;20482;-62
2023/01/09 00:36:12;;;;;;;8.50;7.60;;;6.60;99.90;;;;;;6250825;28;20472;-62
2023/01/09 00:39:17;;;;;;;7.60;6.83;;;6.50;99.90;;;;;;6250876;28;20471;-62
2023/01/09 00:42:24;;;;;;;8.00;7.17;;;6.60;99.90;;;;;;6250813;28;20474;-62
2023/01/09 00:45:29;;;;;;;7.37;6.17;;;6.60;99.90;;;;;;6250693;28;20478;-62
2023/01/09 00:48:34;;;;;;;8.77;7.23;;;6.60;99.90;;;;;;6258873;28;20797;-61
2023/01/09 00:51:38;;;;;;;8.10;6.63;;;6.60;99.90;;;;;;6275362;28;20549;-63
2023/01/09 00:54:43;;;;;;;7.20;6.50;;;6.70;99.90;;;;;;6274829;28;21040;-62
2023/01/09 00:57:47;;;;;;;8.50;6.30;;;6.70;99.90;;;;;;6275087;28;20479;-62
2023/01/09 01:00:50;;;;;;;7.07;6.47;;;6.70;99.90;;;;;;6275330;28;20485;-62
2023/01/09 01:03:54;;;;;;;7.70;6.97;;;6.70;99.90;;;;;;6275721;28;20478;-62
2023/01/09 01:10:21;;;;;;;6.93;6.10;;;6.60;99.90;;;;;;6275187;28;20458;-62
2023/01/09 01:13:24;;;;;;;9.10;6.43;;;6.60;99.90;;;;;;6275021;28;20473;-63
2023/01/09 01:16:28;;;;;;;8.40;7.53;;;6.70;99.90;;;;;;6275097;28;20958;-62
2023/01/09 01:19:31;;;;;;;7.13;6.33;;;6.70;99.90;;;;;;6274602;28;20486;-62
2023/01/09 01:22:34;;;;;;;8.10;6.33;;;6.60;99.90;;;;;;6274773;28;20489;-62
2023/01/09 01:25:40;;;;;;;7.87;7.07;;;6.70;99.90;;;;;;6282821;28;20481;-62
2023/01/09 01:28:44;;;;;;;6.80;6.20;;;6.70;99.90;;;;;;6298986;28;20477;-63
2023/01/09 01:31:47;;;;;;;7.20;6.50;;;6.70;99.90;;;;;;6299733;28;20488;-63
2023/01/09 01:34:50;;;;;;;7.73;6.30;;;6.70;99.90;;;;;;6309753;28;20476;-63
2023/01/09 01:37:53;;;;;;;5.33;4.93;;;6.70;99.90;;;;;;6290568;28;20486;-63
2023/01/09 01:41:01;;;;;;;12.00;6.50;;;6.70;99.90;;;;;;6249723;28;20982;-63
2023/01/09 01:44:07;;;;;;;6.07;5.50;;;6.80;99.90;;;;;;6249843;28;20973;-63
2023/01/09 01:47:10;;;;;;;5.87;5.23;;;6.80;99.90;;;;;;6249988;28;20467;-63
2023/01/09 01:50:24;;;;;;;6.50;5.17;;;6.80;99.90;;;;;;6255315;28;20482;-63
2023/01/09 01:53:31;;;;;;;6.23;5.63;;;6.80;99.90;;;;;;6262767;28;20474;-62
2023/01/09 01:56:40;;;;;;;5.93;5.40;;;6.90;99.90;;;;;;6264879;28;20492;-62
2023/01/09 01:59:50;;;;;;;7.37;5.03;;;6.90;99.90;;;;;;6274862;28;20504;-62
2023/01/09 02:02:53;;;;;;;6.17;5.00;;;6.80;99.90;;;;;;6274557;28;20470;-62
2023/01/09 02:05:56;;;;;;;6.20;4.70;;;6.80;99.90;;;;;;6274396;28;21017;-62
2023/01/09 02:09:00;;;;;;;6.13;5.57;;;6.90;99.90;;;;;;6274381;28;20481;-62
2023/01/09 02:12:16;;;;;;;7.13;5.10;;;6.90;99.90;;;;;;6273962;28;20482;-62
2023/01/09 02:15:20;;;;;;;5.10;4.70;;;6.90;99.90;;;;;;6273926;28;20982;-62
2023/01/09 02:18:37;;;;;;;6.17;5.20;;;6.90;99.90;;;;;;6272917;28;20505;-63
2023/01/09 02:21:54;;;;;;;5.67;5.00;;;6.90;99.90;;;;;;6272284;28;20616;-62
2023/01/09 02:25:48;;;;;;;8.33;6.00;;;6.90;99.90;;;;;;6274466;28;20474;-62
2023/01/09 02:29:36;;;;;;;6.67;5.13;;;6.90;99.90;;;;;;6296935;28;20961;-62
2023/01/09 02:33:02;;;;;;;9.73;5.90;;;6.90;99.90;;;;;;6269580;28;20480;-62
2023/01/09 02:36:14;;;;;;;6.13;5.10;;;6.80;99.90;;;;;;6298149;28;20469;-62
2023/01/09 02:39:26;;;;;;;5.50;4.37;;;6.80;99.90;;;;;;6297786;28;20481;-62
2023/01/09 02:42:29;;;;;;;5.50;5.00;;;6.80;99.90;;;;;;6303396;28;20480;-62
2023/01/09 02:45:33;;;;;;;6.60;5.27;;;6.80;99.90;;;;;;6302815;28;20488;-62
2023/01/09 02:48:37;;;;;;;6.70;5.27;;;6.90;99.90;;;;;;6302791;28;21046;-62
2023/01/09 02:51:51;;;;;;;6.50;5.10;;;6.90;99.90;;;;;;6302636;28;20480;-62
2023/01/09 02:55:04;;;;;;;8.83;5.63;;;6.80;99.90;;;;;;6253187;28;20436;-61
2023/01/09 02:58:12;;;;;;;6.07;4.80;;;6.80;99.90;;;;;;6244288;28;20452;-62
2023/01/09 03:01:25;;;;;;;4.67;4.20;;;6.80;99.90;;;;;;6253634;28;20477;-62
2023/01/09 03:04:43;;;;;;;5.63;4.60;;;6.80;99.90;;;;;;6253223;28;20474;-62
2023/01/09 03:07:51;;;;;;;4.40;4.00;;;6.90;99.90;;;;;;6252738;28;20475;-62
2023/01/09 03:11:01;;;;;;;4.50;4.00;;;6.90;99.90;;;;;;6253156;28;20474;-62
2023/01/09 03:14:09;;;;;;;4.30;3.90;;;7.00;99.90;;;;;;6253569;28;20801;-62
2023/01/09 03:17:15;;;;;;;4.37;3.97;;;7.00;99.90;;;;;;6252812;28;20586;-62
2023/01/09 03:20:23;;;;;;;5.40;4.47;;;7.00;99.90;;;;;;6252861;28;20471;-62
2023/01/09 03:23:27;;;;;;;6.40;4.70;;;7.00;99.90;;;;;;6252666;28;20968;-61
2023/01/09 03:26:31;;;;;;;6.10;3.93;;;7.00;99.90;;;;;;6283151;28;20536;-61
2023/01/09 03:29:34;;;;;;;4.67;3.97;;;7.00;99.90;;;;;;6302189;28;20480;-61
2023/01/09 03:32:37;;;;;;;5.00;4.17;;;7.00;99.90;;;;;;6302533;28;21023;-61
2023/01/09 03:35:42;;;;;;;7.10;4.40;;;7.00;99.90;;;;;;6302809;28;20484;-61
2023/01/09 03:38:45;;;;;;;5.00;3.90;;;6.90;99.90;;;;;;6302765;28;20481;-61
2023/01/09 03:41:48;;;;;;;4.20;3.80;;;6.90;99.90;;;;;;6310049;28;20466;-61
2023/01/09 03:44:51;;;;;;;4.50;4.03;;;6.90;99.90;;;;;;6320095;28;20473;-61
2023/01/09 03:47:57;;;;;;;4.80;4.30;;;6.90;99.90;;;;;;6301306;28;20473;-61
2023/01/09 03:51:01;;;;;;;4.30;3.90;;;7.00;99.90;;;;;;6301303;28;20485;-62
2023/01/09 03:54:05;;;;;;;8.20;3.57;;;7.10;99.90;;;;;;6282876;28;20481;-62
2023/01/09 03:57:08;;;;;;;4.23;3.80;;;7.10;99.90;;;;;;6276779;28;20507;-62
2023/01/09 04:00:12;;;;;;;5.60;4.40;;;7.10;99.90;;;;;;6276599;28;20474;-61
2023/01/09 04:03:17;;;;;;;4.43;4.03;;;7.00;99.90;;;;;;6272344;28;20467;-62
2023/01/09 04:06:22;;;;;;;4.70;4.30;;;7.10;99.90;;;;;;6276213;28;20479;-62
2023/01/09 04:09:25;;;;;;;4.03;3.73;;;7.10;99.90;;;;;;6276376;28;20480;-62
2023/01/09 04:12:28;;;;;;;5.23;4.47;;;7.10;99.90;;;;;;6276806;28;20485;-62
2023/01/09 04:15:31;;;;;;;4.80;3.97;;;7.10;99.90;;;;;;6276264;28;20477;-62
2023/01/09 04:18:34;;;;;;;5.33;4.37;;;7.10;99.90;;;;;;6276280;28;20493;-61
2023/01/09 04:21:39;;;;;;;4.40;4.00;;;7.20;99.90;;;;;;6276210;28;20470;-61
2023/01/09 04:24:42;;;;;;;5.97;4.00;;;7.20;99.90;;;;;;6276295;28;20509;-61
2023/01/09 04:27:45;;;;;;;4.53;3.77;;;7.20;99.90;;;;;;6300327;28;20488;-62
2023/01/09 04:30:51;;;;;;;5.23;4.20;;;7.30;99.90;;;;;;6300707;28;20478;-62
2023/01/09 04:33:54;;;;;;;4.67;4.27;;;7.30;99.90;;;;;;6300734;28;20765;-62
2023/01/09 04:36:58;;;;;;;4.53;4.13;;;7.30;99.90;;;;;;6300442;28;20469;-61
2023/01/09 04:40:04;;;;;;;6.80;4.60;;;7.30;99.90;;;;;;6300859;28;20473;-61
2023/01/09 04:43:07;;;;;;;4.10;3.80;;;7.40;99.90;;;;;;6300680;28;20422;-62
2023/01/09 04:46:11;;;;;;;4.43;4.03;;;7.40;99.90;;;;;;6300724;28;20477;-62
2023/01/09 04:49:14;;;;;;;3.80;3.50;;;7.40;99.90;;;;;;6300116;28;20488;-62
2023/01/09 04:52:19;;;;;;;5.13;3.50;;;7.40;99.90;;;;;;6284866;28;20455;-61
2023/01/09 04:55:22;;;;;;;4.07;3.67;;;7.50;99.90;;;;;;6275132;28;20474;-61
2023/01/09 04:58:25;;;;;;;4.07;3.67;;;7.40;99.90;;;;;;6275422;28;20492;-61
2023/01/09 05:01:28;;;;;;;3.77;3.37;;;7.50;99.90;;;;;;6275126;28;20964;-62
2023/01/09 05:04:32;;;;;;;3.80;3.50;;;7.50;99.90;;;;;;6274638;28;20493;-62
2023/01/09 05:07:36;;;;;;;4.17;3.87;;;7.50;99.90;;;;;;6275084;28;20559;-63
2023/01/09 05:10:40;;;;;;;4.60;4.20;;;7.50;99.90;;;;;;6275258;28;20929;-62
2023/01/09 05:13:43;;;;;;;5.13;4.63;;;7.50;99.90;;;;;;6275152;28;20481;-62
2023/01/09 05:16:46;;;;;;;4.50;3.93;;;7.40;99.90;;;;;;6275201;28;20462;-62
2023/01/09 05:19:49;;;;;;;3.73;3.43;;;7.40;99.90;;;;;;6274788;28;20478;-62
2023/01/09 05:22:54;;;;;;;4.50;3.63;;;7.40;99.90;;;;;;6274733;28;20968;-62
2023/01/09 05:25:57;;;;;;;4.77;3.93;;;7.40;99.90;;;;;;6285177;28;20492;-62
2023/01/09 05:29:00;;;;;;;4.67;4.27;;;7.50;99.90;;;;;;6300013;28;20488;-63
2023/01/09 05:32:04;;;;;;;4.10;3.73;;;7.50;99.90;;;;;;6299766;28;20544;-63
2023/01/09 05:35:08;;;;;;;4.97;4.23;;;7.50;99.90;;;;;;6299603;28;20468;-62
2023/01/09 05:38:12;;;;;;;3.93;3.63;;;7.40;99.90;;;;;;6299674;28;20484;-62
2023/01/09 05:41:15;;;;;;;5.00;4.60;;;7.40;99.90;;;;;;6299060;28;20481;-62
2023/01/09 05:44:18;;;;;;;4.23;3.83;;;7.40;99.90;;;;;;6299385;28;20961;-62
2023/01/09 05:47:22;;;;;;;4.90;4.50;;;7.40;99.90;;;;;;6299323;28;20473;-62
2023/01/09 05:50:25;;;;;;;5.10;4.30;;;7.30;99.90;;;;;;6303189;28;20811;-62
2023/01/09 05:53:29;;;;;;;18.17;14.60;;;7.30;99.90;;;;;;6302638;28;20473;-62
2023/01/09 05:56:32;;;;;;;6.47;5.97;;;7.40;99.90;;;;;;6273702;28;20783;-62
2023/01/09 05:59:36;;;;;;;5.43;4.70;;;7.30;99.90;;;;;;6272825;28;20481;-62
2023/01/09 06:02:39;;;;;;;5.40;4.90;;;7.30;99.90;;;;;;6273508;28;20507;-62
2023/01/09 06:05:42;;;;;;;5.50;4.77;;;7.20;99.90;;;;;;6273379;28;20815;-62
2023/01/09 06:08:47;;;;;;;6.63;4.63;;;7.20;99.90;;;;;;6273749;28;20588;-62
2023/01/09 06:11:50;;;;;;;4.10;3.70;;;7.30;99.90;;;;;;6270995;28;20500;-62
2023/01/09 06:14:53;;;;;;;4.97;4.53;;;7.20;99.90;;;;;;6275285;28;20489;-62
2023/01/09 06:17:56;;;;;;;6.50;4.87;;;7.20;99.90;;;;;;6278657;28;20480;-62
2023/01/09 06:20:59;;;;;;;5.23;4.43;;;7.20;99.90;;;;;;6279113;28;20474;-62
2023/01/09 06:24:04;;;;;;;4.80;4.40;;;7.20;99.90;;;;;;6278858;28;20579;-62
2023/01/09 06:27:07;;;;;;;6.07;5.47;;;7.20;99.90;;;;;;6298811;28;20470;-62
2023/01/09 06:30:11;;;;;;;4.80;4.27;;;7.20;99.90;;;;;;6303848;28;20465;-62
2023/01/09 06:33:15;;;;;;;5.23;4.73;;;7.20;99.90;;;;;;6303268;28;20814;-62
2023/01/09 06:36:18;;;;;;;6.30;4.80;;;7.20;99.90;;;;;;6304306;28;20518;-62
2023/01/09 06:39:25;;;;;;;5.67;4.90;;;7.20;99.90;;;;;;6303136;28;20937;-62
2023/01/09 06:42:28;;;;;;;6.47;5.30;;;7.20;99.90;;;;;;6303913;28;20479;-63
2023/01/09 06:45:31;;;;;;;6.20;5.60;;;7.20;99.90;;;;;;6303180;28;20481;-63
2023/01/09 06:48:35;;;;;;;6.07;5.03;;;7.20;99.90;;;;;;6302907;28;20485;-63
2023/01/09 06:51:38;;;;;;;6.47;4.70;;;7.20;99.90;;;;;;6302625;28;20473;-62
2023/01/09 06:54:42;;;;;;;5.73;5.20;;;7.20;99.90;;;;;;6285001;28;20476;-62
2023/01/09 06:57:47;;;;;;;6.23;5.23;;;7.20;99.90;;;;;;6278345;28;20489;-63
2023/01/09 07:00:52;;;;;;;5.03;4.53;;;7.20;99.90;;;;;;6277946;28;20484;-62
2023/01/09 07:03:55;;;;;;;5.97;4.93;;;7.20;99.90;;;;;;6278053;28;20482;-62
2023/01/09 07:06:58;;;;;;;5.47;4.90;;;7.30;99.90;;;;;;6277604;28;20568;-62
2023/01/09 07:10:03;;;;;;;6.57;5.50;;;7.30;99.90;;;;;;6277660;28;20795;-63
2023/01/09 07:13:06;;;;;;;7.00;5.67;;;7.30;99.90;;;;;;6278049;28;20499;-63
2023/01/09 07:16:09;;;;;;;5.73;5.23;;;7.30;99.90;;;;;;6277779;28;20883;-62
2023/01/09 07:19:12;;;;;;;6.57;5.97;;;7.30;99.90;;;;;;6278029;28;20459;-62
2023/01/09 07:22:16;;;;;;;8.47;6.97;;;7.30;99.90;;;;;;6278065;28;20806;-62
2023/01/09 07:25:20;;;;;;;6.67;5.97;;;7.30;99.90;;;;;;6282673;28;20472;-62
2023/01/09 07:28:24;;;;;;;5.60;5.20;;;7.30;99.90;;;;;;6302045;28;20547;-63
2023/01/09 07:31:27;;;;;;;5.67;5.17;;;7.40;99.90;;;;;;6302046;28;20476;-63
2023/01/09 07:34:30;;;;;;;6.53;5.93;;;7.40;99.90;;;;;;6302429;28;20481;-63
2023/01/09 07:37:34;;;;;;;5.77;4.60;;;7.40;99.90;;;;;;6302195;28;20474;-63
2023/01/09 07:40:38;;;;;;;6.00;5.00;;;7.50;99.90;;;;;;6302068;28;20497;-63
2023/01/09 07:43:42;;;;;;;6.40;5.77;;;7.50;99.90;;;;;;6301992;28;20473;-62
2023/01/09 07:46:45;;;;;;;6.77;5.67;;;7.60;99.90;;;;;;6301785;28;20809;-63
2023/01/09 07:49:48;;;;;;;6.90;5.20;;;7.70;99.90;;;;;;6301574;28;20493;-63
2023/01/09 07:52:51;;;;;;;6.63;5.97;;;7.70;99.90;;;;;;6298589;28;20543;-63
2023/01/09 07:55:56;;;;;;;9.53;8.80;;;7.70;99.90;;;;;;6277219;28;20462;-62
2023/01/09 07:58:59;;;;;;;5.70;5.00;;;7.80;99.90;;;;;;6282682;28;20545;-63
2023/01/09 08:02:04;;;;;;;5.00;4.60;;;7.90;99.90;;;;;;6282437;28;20489;-63
2023/01/09 08:05:12;;;;;;;4.80;4.40;;;7.90;99.90;;;;;;6274728;28;20997;-64
2023/01/09 08:08:15;;;;;;;5.70;4.93;;;7.90;99.90;;;;;;6273144;28;20470;-63
2023/01/09 08:11:20;;;;;;;7.37;4.83;;;8.00;99.90;;;;;;6276216;28;20481;-63
2023/01/09 08:14:23;;;;;;;5.50;4.07;;;8.00;99.90;;;;;;6276403;28;20466;-62
2023/01/09 08:17:26;;;;;;;4.97;4.57;;;8.10;99.90;;;;;;6258795;28;20474;-62
2023/01/09 08:20:29;;;;;;;5.37;4.90;;;8.20;99.90;;;;;;6262255;28;20471;-62
2023/01/09 08:23:33;;;;;;;5.70;4.93;;;8.20;99.90;;;;;;6258278;28;20470;-62
2023/01/09 08:26:37;;;;;;;5.63;5.13;;;8.20;99.90;;;;;;6282885;28;20483;-63
2023/01/09 08:29:40;;;;;;;6.73;5.63;;;8.30;99.90;;;;;;6300928;28;20474;-65
2023/01/09 08:32:44;;;;;;;6.30;5.70;;;8.40;99.90;;;;;;6300764;28;20465;-64
2023/01/09 08:35:47;;;;;;;6.07;5.50;;;8.50;99.90;;;;;;6302108;28;20466;-64
2023/01/09 08:38:50;;;;;;;6.00;5.40;;;8.60;99.90;;;;;;6300609;28;21204;-63
2023/01/09 08:48:36;;;;;;;7.23;5.77;;;8.60;99.90;;;;;;6276390;28;20501;-64
2023/01/09 08:51:39;;;;;;;5.40;4.70;;;8.70;99.90;;;;;;6276382;28;20489;-63
2023/01/09 08:54:42;;;;;;;5.83;5.20;;;8.70;99.90;;;;;;6294079;28;20470;-63
2023/01/09 08:57:50;;;;;;;5.80;5.10;;;8.80;99.90;;;;;;6300637;28;20992;-63
2023/01/09 09:00:54;;;;;;;5.67;4.83;;;8.90;99.90;;;;;;6300075;28;20465;-63
2023/01/09 09:03:57;;;;;;;6.80;6.20;;;8.90;99.90;;;;;;6300190;28;20481;-62
2023/01/09 09:07:00;;;;;;;6.00;5.40;;;8.90;99.90;;;;;;6285640;28;20481;-62
2023/01/09 09:10:03;;;;;;;7.60;5.60;;;9.00;99.90;;;;;;6275198;28;20735;-62
2023/01/09 09:13:08;;;;;;;6.80;6.20;;;9.00;99.90;;;;;;6274815;28;20461;-61
2023/01/09 09:16:11;;;;;;;6.73;6.07;;;9.00;99.90;;;;;;6274734;28;20504;-60
2023/01/09 09:19:14;;;;;;;11.70;6.30;;;9.00;99.90;;;;;;6274664;28;20758;-61
2023/01/09 09:22:17;;;;;;;8.87;7.57;;;9.00;99.90;;;;;;6274630;28;20465;-61
2023/01/09 09:25:21;;;;;;;10.13;8.30;;;9.00;99.90;;;;;;6279937;28;20481;-61
2023/01/09 09:28:26;;;;;;;10.87;8.37;;;9.00;99.90;;;;;;6299136;28;20462;-61
2023/01/09 09:31:29;;;;;;;13.07;9.30;;;9.00;99.90;;;;;;6299124;28;20476;-60
2023/01/09 09:34:32;;;;;;;13.27;9.10;;;9.10;99.90;;;;;;6299376;28;20465;-60
2023/01/09 09:37:35;;;;;;;13.47;9.10;;;9.20;99.90;;;;;;6283978;28;20478;-61
2023/01/09 09:44:41;;;;;;;10.87;8.93;;;9.30;99.90;;;;;;6264964;28;20470;-61
2023/01/09 09:44:52;;;;;;;9.07;7.93;;;9.40;99.90;;;;;;6249982;28;20482;-60
2023/01/09 09:48:04;;;;;;;8.77;7.97;;;9.60;99.90;;;;;;6249846;28;20486;-60
2023/01/09 09:51:34;;;;;;;12.50;8.20;;;9.80;99.90;;;;;;6248592;28;20799;-59
2023/01/09 09:54:42;;;;;;;7.63;6.83;;;9.90;99.90;;;;;;6262239;28;20462;-60
2023/01/09 09:57:47;;;;;;;8.73;7.93;;;10.20;99.90;;;;;;6262549;28;20478;-60
2023/01/09 10:00:53;;;;;;;8.23;7.53;;;10.40;99.90;;;;;;6266681;28;20486;-59
2023/01/09 10:04:00;;;;;;;10.47;8.50;;;10.70;99.90;;;;;;6255336;28;20471;-60
2023/01/09 10:07:08;;;;;;;9.87;8.83;;;11.00;99.90;;;;;;6262804;28;20766;-58
2023/01/09 10:10:16;;;;;;;10.47;8.70;;;11.10;99.90;;;;;;6274026;28;20457;-59
2023/01/09 10:17:07;;;;;;;7.50;6.70;;;11.10;99.90;;;;;;6273605;28;20481;-59
2023/01/09 10:20:47;;;;;;;7.77;5.90;;;11.10;99.90;;;;;;6273946;28;20470;-59
2023/01/09 10:24:11;;;;;;;6.20;4.57;;;11.00;99.90;;;;;;6274376;28;20466;-60
2023/01/09 10:27:28;;;;;;;8.30;5.27;;;10.90;99.90;;;;;;6295419;28;20481;-60
2023/01/09 10:30:39;;;;;;;6.23;5.60;;;10.80;99.90;;;;;;6298489;28;20492;-60
2023/01/09 10:33:59;;;;;;;6.10;5.50;;;10.90;99.90;;;;;;6298690;28;20483;-61
2023/01/09 10:37:08;;;;;;;7.13;5.57;;;10.80;99.90;;;;;;6298845;28;20441;-61
2023/01/09 10:40:20;;;;;;;5.90;5.40;;;10.80;99.90;;;;;;6298504;28;20526;-60
2023/01/09 10:43:31;;;;;;;7.70;6.30;;;10.70;99.90;;;;;;6298676;28;20461;-59
2023/01/09 10:46:39;;;;;;;6.80;6.20;;;10.60;99.90;;;;;;6298720;28;20480;-59
2023/01/09 10:49:45;;;;;;;8.00;6.67;;;10.50;99.90;;;;;;6298137;28;20472;-61
2023/01/09 10:52:50;;;;;;;11.13;6.97;;;10.40;99.90;;;;;;6295632;28;20480;-60
2023/01/09 10:56:00;;;;;;;6.20;5.70;;;10.40;99.90;;;;;;6273383;28;20484;-60
2023/01/09 10:59:03;;;;;;;6.30;5.30;;;10.40;99.90;;;;;;6273002;28;20482;-60
2023/01/09 11:02:23;;;;;;;5.97;5.37;;;10.30;99.90;;;;;;6275389;28;20478;-60
2023/01/09 11:05:30;;;;;;;6.03;5.40;;;10.30;99.90;;;;;;6277939;28;20927;-61
2023/01/09 11:08:40;;;;;;;5.97;5.37;;;10.20;99.90;;;;;;6277326;28;20791;-60
2023/01/09 11:11:44;;;;;;;7.73;5.27;;;10.10;99.90;;;;;;6277760;28;20549;-59
2023/01/09 11:14:47;;;;;;;7.63;5.73;;;10.00;99.90;;;;;;6277159;28;20516;-59
2023/01/09 11:17:52;;;;;;;9.30;5.63;;;10.00;99.90;;;;;;6277201;28;20466;-59
2023/01/09 11:20:56;;;;;;;7.10;6.50;;;10.00;99.90;;;;;;6277208;28;20474;-60
2023/01/09 11:24:28;;;;;;;7.67;5.83;;;10.00;99.90;;;;;;6277055;28;20799;-61
2023/01/09 11:27:31;;;;;;;10.73;9.00;;;9.90;99.90;;;;;;6300447;28;20486;-59
2023/01/09 11:30:35;;;;;;;8.47;7.10;;;9.80;99.90;;;;;;6263705;28;20489;-59
2023/01/09 11:33:47;;;;;;;7.93;6.70;;;9.70;99.90;;;;;;6265689;28;20969;-61
2023/01/09 11:36:53;;;;;;;9.37;8.53;;;9.50;99.90;;;;;;6276828;28;20474;-60
2023/01/09 11:39:58;;;;;;;7.90;7.10;;;9.40;99.90;;;;;;6277060;28;20557;-60
2023/01/09 11:43:04;;;;;;;8.83;7.77;;;9.50;99.90;;;;;;6276359;28;20453;-60
2023/01/09 11:46:29;;;;;;;9.03;7.67;;;9.50;99.90;;;;;;6277024;28;20423;-59
2023/01/09 11:49:32;;;;;;;8.80;6.93;;;9.50;99.90;;;;;;6276215;28;20458;-60
2023/01/09 11:52:37;;;;;;;11.50;8.77;;;9.60;99.90;;;;;;6276720;28;20477;-59
2023/01/09 11:55:40;;;;;;;9.33;6.83;;;9.50;99.90;;;;;;6269749;28;20500;-60
2023/01/09 11:58:45;;;;;;;7.37;6.20;;;9.50;99.90;;;;;;6275887;28;20812;-60
2023/01/09 12:02:19;;;;;;;8.40;7.13;;;9.50;99.90;;;;;;6276677;28;20552;-60
2023/01/09 12:05:33;;;;;;;8.87;7.97;;;9.50;99.90;;;;;;6276402;28;20492;-61
2023/01/09 12:08:49;;;;;;;11.83;8.33;;;9.40;99.90;;;;;;6277681;28;20482;-58
2023/01/09 12:11:57;;;;;;;7.23;6.43;;;9.40;99.90;;;;;;6276477;28;20467;-61
2023/01/09 12:15:17;;;;;;;8.70;7.80;;;9.40;99.90;;;;;;6276105;28;20496;-59
2023/01/09 12:18:40;;;;;;;14.00;8.30;;;9.40;99.90;;;;;;6275998;28;20582;-60
2023/01/09 12:21:51;;;;;;;7.37;6.67;;;9.40;99.90;;;;;;6270060;28;20467;-61
2023/01/09 12:25:11;;;;;;;7.63;6.80;;;9.30;99.90;;;;;;6254426;28;20487;-60
2023/01/09 12:28:42;;;;;;;8.00;7.20;;;9.40;99.90;;;;;;6291974;28;20805;-59
2023/01/09 12:32:11;;;;;;;9.50;6.53;;;9.40;99.90;;;;;;6253999;28;20485;-59
2023/01/09 12:35:31;;;;;;;12.43;8.03;;;9.20;99.90;;;;;;6251046;28;20476;-60
2023/01/09 12:38:48;;;;;;;7.40;6.70;;;9.30;99.90;;;;;;6251071;28;20467;-60
2023/01/09 12:42:13;;;;;;;9.87;8.67;;;9.40;99.90;;;;;;6251019;28;20479;-60
2023/01/09 12:45:39;;;;;;;12.37;9.03;;;9.50;99.90;;;;;;6250191;28;20479;-61
2023/01/09 12:49:11;;;;;;;12.80;10.50;;;9.50;99.90;;;;;;6250084;28;20491;-60
2023/01/09 12:52:19;;;;;;;10.73;9.63;;;9.60;99.90;;;;;;6251396;28;20455;-60
2023/01/09 12:55:25;;;;;;;12.13;10.03;;;9.70;99.90;;;;;;6273697;28;20460;-60
2023/01/09 12:58:36;;;;;;;11.47;9.27;;;9.80;99.90;;;;;;6274586;28;20454;-60
2023/01/09 13:01:44;;;;;;;18.20;13.33;;;9.70;99.90;;;;;;6274781;28;20992;-60
2023/01/09 13:04:53;;;;;;;21.47;15.10;;;9.70;99.90;;;;;;6274444;28;20470;-60
2023/01/09 13:08:02;;;;;;;13.10;11.70;;;9.80;99.90;;;;;;6274624;28;20477;-60
2023/01/09 13:11:09;;;;;;;14.03;12.50;;;9.80;99.90;;;;;;6271353;28;20779;-61
2023/01/09 13:14:43;;;;;;;22.37;14.20;;;9.80;99.90;;;;;;6271846;28;20466;-60
2023/01/09 13:17:50;;;;;;;13.83;12.43;;;9.80;99.90;;;;;;6274237;28;21047;-60
2023/01/09 13:20:55;;;;;;;20.20;14.33;;;9.80;99.90;;;;;;6274329;28;20466;-60
2023/01/09 13:24:07;;;;;;;18.53;16.23;;;9.80;99.90;;;;;;6273879;28;20470;-62
2023/01/09 13:27:15;;;;;;;19.63;15.50;;;9.80;99.90;;;;;;6270043;28;20485;-61
2023/01/09 13:30:41;;;;;;;17.37;15.63;;;9.80;99.90;;;;;;6258585;28;20481;-61
2023/01/09 13:33:46;;;;;;;12.83;11.63;;;9.80;99.90;;;;;;6261756;28;20467;-61
2023/01/09 13:36:51;;;;;;;16.63;11.20;;;9.90;99.90;;;;;;6255762;28;20485;-61
2023/01/09 13:39:57;;;;;;;14.80;11.63;;;9.80;99.90;;;;;;6259688;28;20470;-61
2023/01/09 13:43:04;;;;;;;11.73;10.53;;;9.80;99.90;;;;;;6249249;28;20985;-61
2023/01/09 13:46:08;;;;;;;15.07;11.97;;;9.80;99.90;;;;;;6249206;28;20459;-60
2023/01/09 13:49:33;;;;;;;13.70;11.63;;;9.80;99.90;;;;;;6248792;28;20874;-60
2023/01/09 13:52:38;;;;;;;11.00;9.80;;;9.70;99.90;;;;;;6250266;28;20470;-60
2023/01/09 13:56:06;;;;;;;15.13;13.63;;;9.60;99.90;;;;;;6273877;28;20474;-61
2023/01/09 13:59:27;;;;;;;6.77;5.27;;;9.60;99.90;;;;;;6274256;28;20473;-60
2023/01/09 14:03:04;;;;;;;7.33;6.63;;;9.60;99.90;;;;;;6273988;28;20477;-61
2023/01/09 14:06:17;;;;;;;8.37;7.57;;;9.60;99.90;;;;;;6266114;28;20473;-60
2023/01/09 14:09:22;;;;;;;3.93;3.40;;;9.50;99.90;;;;;;6259340;28;20478;-60
2023/01/09 14:12:29;;;;;;;7.20;5.80;;;9.50;99.90;;;;;;6266441;28;20478;-60
2023/01/09 14:15:38;;;;;;;9.17;6.87;;;9.50;99.90;;;;;;6273498;28;20474;-60
2023/01/09 14:18:49;;;;;;;10.03;9.03;;;9.50;99.90;;;;;;6273491;28;20532;-60
2023/01/09 14:21:55;;;;;;;5.47;3.60;;;9.50;99.90;;;;;;6274139;28;20475;-60
2023/01/09 14:25:09;;;;;;;7.33;6.50;;;9.50;99.90;;;;;;6276093;28;20993;-60
2023/01/09 14:28:22;;;;;;;4.73;4.33;;;9.50;99.90;;;;;;6298054;28;20773;-60
2023/01/09 14:31:30;;;;;;;4.33;3.33;;;9.50;99.90;;;;;;6272186;28;20797;-60
2023/01/09 14:34:37;;;;;;;3.07;2.10;;;9.40;99.90;;;;;;6273431;28;20466;-60
2023/01/09 14:37:41;;;;;;;1.33;1.23;;;9.40;99.90;;;;;;6277577;28;20492;-61
2023/01/09 14:40:49;;;;;;;1.13;0.90;;;9.30;99.90;;;;;;6278159;28;20488;-60
2023/01/09 14:43:59;;;;;;;0.83;0.83;;;9.20;99.90;;;;;;6272581;28;20474;-61
2023/01/09 14:47:11;;;;;;;1.57;1.47;;;9.20;99.90;;;;;;6268297;28;20470;-60
2023/01/09 14:50:19;;;;;;;1.30;1.20;;;9.20;99.90;;;;;;6251685;28;20628;-59
2023/01/09 14:53:25;;;;;;;1.63;1.27;;;9.10;99.90;;;;;;6258480;28;20796;-60
2023/01/09 14:56:30;;;;;;;2.60;1.50;;;9.10;99.90;;;;;;6275452;28;20623;-59
2023/01/09 14:59:35;;;;;;;1.27;1.17;;;9.10;99.90;;;;;;6275941;28;20474;-62
2023/01/09 15:02:41;;;;;;;1.63;1.40;;;9.10;99.90;;;;;;6276116;28;20863;-61
2023/01/09 15:05:45;;;;;;;2.60;0.90;;;9.10;99.90;;;;;;6272742;28;20470;-61
2023/01/09 15:08:54;;;;;;;1.40;1.30;;;9.10;99.90;;;;;;6273337;28;20474;-59
2023/01/09 15:12:05;;;;;;;2.03;1.37;;;9.10;99.90;;;;;;6276946;28;20789;-59
2023/01/09 15:15:15;;;;;;;2.27;1.73;;;9.00;99.90;;;;;;6272675;28;20471;-59
2023/01/09 15:18:24;;;;;;;2.40;2.20;;;9.00;99.90;;;;;;6267136;28;20470;-59
2023/01/09 15:21:30;;;;;;;4.23;1.93;;;9.00;99.90;;;;;;6258179;28;20475;-60
2023/01/09 15:24:34;;;;;;;2.80;2.20;;;9.00;99.90;;;;;;6269636;28;20470;-60
2023/01/09 15:27:47;;;;;;;2.70;2.50;;;9.00;99.90;;;;;;6300461;28;20492;-59
2023/01/09 15:30:58;;;;;;;4.43;2.73;;;9.00;99.90;;;;;;6289721;28;20791;-59
2023/01/09 15:34:04;;;;;;;2.30;2.20;;;9.00;99.90;;;;;;6276730;28;20995;-60
2023/01/09 15:37:23;;;;;;;7.70;6.90;;;9.00;99.90;;;;;;6275610;28;20459;-60
2023/01/09 15:40:33;;;;;;;2.60;2.40;;;9.00;99.90;;;;;;6264814;28;20475;-58
2023/01/09 15:43:40;;;;;;;1.70;1.60;;;9.00;99.90;;;;;;6257274;28;21233;-58
2023/01/09 15:46:48;;;;;;;3.47;3.13;;;9.00;99.90;;;;;;6266598;28;20470;-58
2023/01/09 15:49:52;;;;;;;1.27;1.20;;;9.00;99.90;;;;;;6275637;28;20561;-58
2023/01/09 15:52:56;;;;;;;2.37;1.67;;;8.90;99.90;;;;;;6276116;28;20474;-59
2023/01/09 15:56:15;;;;;;;3.47;3.17;;;8.70;99.90;;;;;;6276685;28;20470;-59
2023/01/09 15:59:26;;;;;;;3.63;2.73;;;8.70;99.90;;;;;;6275801;28;20533;-59
2023/01/09 16:05:56;;;;;;;4.30;3.90;;;8.60;99.90;;;;;;6275362;28;20485;-59
2023/01/09 16:09:00;;;;;;;3.80;2.80;;;8.70;99.90;;;;;;6250696;28;20506;-59
2023/01/09 16:12:04;;;;;;;6.20;3.97;;;8.60;99.90;;;;;;6251325;28;20617;-58
2023/01/09 16:15:17;;;;;;;6.60;4.93;;;8.60;99.90;;;;;;6259895;28;20470;-58
2023/01/09 16:18:27;;;;;;;3.97;3.63;;;8.60;99.90;;;;;;6264280;28;20478;-58
2023/01/09 16:21:33;;;;;;;4.60;3.47;;;8.50;99.90;;;;;;6260503;28;20478;-59
2023/01/09 16:24:40;;;;;;;2.60;2.33;;;8.50;99.90;;;;;;6257060;28;20474;-59
2023/01/09 16:27:44;;;;;;;13.33;8.80;;;8.50;99.90;;;;;;6251039;28;20490;-59
2023/01/09 16:30:53;;;;;;;4.00;3.60;;;8.50;99.90;;;;;;6261119;28;20493;-59
2023/01/09 16:34:00;;;;;;;7.07;6.47;;;8.50;99.90;;;;;;6274015;28;20466;-59
2023/01/09 16:37:05;;;;;;;3.67;3.37;;;8.50;99.90;;;;;;6273734;28;20447;-61
2023/01/09 16:40:30;;;;;;;3.63;3.33;;;8.60;99.90;;;;;;6271626;28;20439;-62
2023/01/09 16:43:33;;;;;;;3.50;3.20;;;8.60;99.90;;;;;;6274864;28;20975;-61